sensor_id;sensor_type;location;lat;lon;timestamp;P1;durP1;ratioP1;P2;durP2;ratioP2
10645;SDS011;5371;49.782;9.932;2023-11-22T00:00:00;5.33;;;3.60;;
10645;SDS011;5371;49.782;9.932;2023-11-22T00:02:28;4.60;;;3.40;;
10645;SDS011;5371;49.782;9.932;2023-11-22T00:04:55;6.00;;;3.60;;
10645;SDS011;5371;49.782;9.932;2023-11-22T00:07:22;5.03;;;3.40;;
10645;SDS011;5371;49.782;9.932;2023-11-22T00:09:50;4.43;;;3.20;;
10645;SDS011;5371;49.782;9.932;2023-11-22T00:12:24;4.83;;;3.40;;
10645;SDS011;5371;49.782;9.932;2023-11-22T00:14:51;4.33;;;3.30;;
10645;SDS011;5371;49.782;9.932;2023-11-22T00:17:18;4.83;;;3.50;;
10645;SDS011;5371;49.782;9.932;2023-11-22T00:19:46;4.40;;;3.23;;
10645;SDS011;5371;49.782;9.932;2023-11-22T00:22:13;4.13;;;3.00;;
10645;SDS011;5371;49.782;9.932;2023-11-22T00:24:40;5.70;;;3.77;;
10645;SDS011;5371;49.782;9.932;2023-11-22T00:27:08;5.10;;;2.90;;
10645;SDS011;5371;49.782;9.932;2023-11-22T00:29:36;3.80;;;2.93;;
10645;SDS011;5371;49.782;9.932;2023-11-22T00:32:03;3.87;;;3.20;;
10645;SDS011;5371;49.782;9.932;2023-11-22T00:34:31;4.13;;;3.20;;
10645;SDS011;5371;49.782;9.932;2023-11-22T00:36:58;4.03;;;2.80;;
10645;SDS011;5371;49.782;9.932;2023-11-22T00:39:25;4.17;;;3.17;;
10645;SDS011;5371;49.782;9.932;2023-11-22T00:41:52;4.37;;;3.00;;
10645;SDS011;5371;49.782;9.932;2023-11-22T00:44:20;3.80;;;3.10;;
10645;SDS011;5371;49.782;9.932;2023-11-22T00:46:48;5.13;;;3.43;;
10645;SDS011;5371;49.782;9.932;2023-11-22T00:49:15;5.13;;;3.13;;
10645;SDS011;5371;49.782;9.932;2023-11-22T00:51:42;4.37;;;2.90;;
10645;SDS011;5371;49.782;9.932;2023-11-22T00:54:10;5.97;;;3.00;;
10645;SDS011;5371;49.782;9.932;2023-11-22T00:56:38;3.67;;;3.20;;
10645;SDS011;5371;49.782;9.932;2023-11-22T00:59:05;5.63;;;3.20;;
10645;SDS011;5371;49.782;9.932;2023-11-22T01:01:34;3.33;;;2.70;;
10645;SDS011;5371;49.782;9.932;2023-11-22T01:04:01;4.00;;;3.00;;
10645;SDS011;5371;49.782;9.932;2023-11-22T01:06:28;4.10;;;2.80;;
10645;SDS011;5371;49.782;9.932;2023-11-22T01:08:57;3.10;;;2.80;;
10645;SDS011;5371;49.782;9.932;2023-11-22T01:11:24;4.90;;;2.97;;
10645;SDS011;5371;49.782;9.932;2023-11-22T01:13:51;6.10;;;3.17;;
10645;SDS011;5371;49.782;9.932;2023-11-22T01:16:18;4.27;;;2.93;;
10645;SDS011;5371;49.782;9.932;2023-11-22T01:18:47;3.63;;;2.97;;
10645;SDS011;5371;49.782;9.932;2023-11-22T01:21:14;5.57;;;2.97;;
10645;SDS011;5371;49.782;9.932;2023-11-22T01:23:41;4.23;;;2.80;;
10645;SDS011;5371;49.782;9.932;2023-11-22T01:26:10;4.63;;;3.07;;
10645;SDS011;5371;49.782;9.932;2023-11-22T01:28:37;4.87;;;2.83;;
10645;SDS011;5371;49.782;9.932;2023-11-22T01:31:10;3.77;;;2.90;;
10645;SDS011;5371;49.782;9.932;2023-11-22T01:33:38;3.53;;;2.90;;
10645;SDS011;5371;49.782;9.932;2023-11-22T01:36:08;4.53;;;3.00;;
10645;SDS011;5371;49.782;9.932;2023-11-22T01:38:35;4.37;;;3.03;;
10645;SDS011;5371;49.782;9.932;2023-11-22T01:41:04;7.80;;;3.00;;
10645;SDS011;5371;49.782;9.932;2023-11-22T01:43:31;5.27;;;3.03;;
10645;SDS011;5371;49.782;9.932;2023-11-22T01:45:58;3.93;;;2.93;;
10645;SDS011;5371;49.782;9.932;2023-11-22T01:48:25;4.93;;;3.00;;
10645;SDS011;5371;49.782;9.932;2023-11-22T01:50:53;3.53;;;2.73;;
10645;SDS011;5371;49.782;9.932;2023-11-22T01:53:21;5.83;;;3.30;;
10645;SDS011;5371;49.782;9.932;2023-11-22T01:55:49;3.60;;;3.00;;
10645;SDS011;5371;49.782;9.932;2023-11-22T01:58:17;3.77;;;3.00;;
10645;SDS011;5371;49.782;9.932;2023-11-22T02:00:45;4.13;;;3.00;;
10645;SDS011;5371;49.782;9.932;2023-11-22T02:03:16;3.87;;;3.30;;
10645;SDS011;5371;49.782;9.932;2023-11-22T02:05:43;4.13;;;3.17;;
10645;SDS011;5371;49.782;9.932;2023-11-22T02:08:11;3.70;;;3.10;;
10645;SDS011;5371;49.782;9.932;2023-11-22T02:10:40;3.30;;;2.90;;
10645;SDS011;5371;49.782;9.932;2023-11-22T02:13:07;4.40;;;3.20;;
10645;SDS011;5371;49.782;9.932;2023-11-22T02:15:35;4.73;;;2.83;;
10645;SDS011;5371;49.782;9.932;2023-11-22T02:18:03;3.73;;;2.97;;
10645;SDS011;5371;49.782;9.932;2023-11-22T02:20:31;3.93;;;3.00;;
10645;SDS011;5371;49.782;9.932;2023-11-22T02:23:03;4.10;;;2.70;;
10645;SDS011;5371;49.782;9.932;2023-11-22T02:25:30;3.47;;;2.63;;
10645;SDS011;5371;49.782;9.932;2023-11-22T02:27:57;4.33;;;2.90;;
10645;SDS011;5371;49.782;9.932;2023-11-22T02:30:25;4.17;;;2.93;;
10645;SDS011;5371;49.782;9.932;2023-11-22T02:32:52;4.20;;;3.10;;
10645;SDS011;5371;49.782;9.932;2023-11-22T02:35:19;4.37;;;2.93;;
10645;SDS011;5371;49.782;9.932;2023-11-22T02:37:46;4.93;;;3.23;;
10645;SDS011;5371;49.782;9.932;2023-11-22T02:40:16;3.80;;;2.63;;
10645;SDS011;5371;49.782;9.932;2023-11-22T02:42:44;4.20;;;2.97;;
10645;SDS011;5371;49.782;9.932;2023-11-22T02:45:11;5.70;;;2.97;;
10645;SDS011;5371;49.782;9.932;2023-11-22T02:47:40;4.67;;;3.03;;
10645;SDS011;5371;49.782;9.932;2023-11-22T02:50:12;3.70;;;2.80;;
10645;SDS011;5371;49.782;9.932;2023-11-22T02:52:40;4.67;;;2.80;;
10645;SDS011;5371;49.782;9.932;2023-11-22T02:55:08;3.30;;;2.70;;
10645;SDS011;5371;49.782;9.932;2023-11-22T02:57:37;5.07;;;2.80;;
10645;SDS011;5371;49.782;9.932;2023-11-22T03:00:05;5.13;;;3.07;;
10645;SDS011;5371;49.782;9.932;2023-11-22T03:02:33;3.30;;;2.77;;
10645;SDS011;5371;49.782;9.932;2023-11-22T03:05:02;3.93;;;2.43;;
10645;SDS011;5371;49.782;9.932;2023-11-22T03:07:29;3.60;;;2.77;;
10645;SDS011;5371;49.782;9.932;2023-11-22T03:09:56;3.43;;;2.63;;
10645;SDS011;5371;49.782;9.932;2023-11-22T03:12:25;4.40;;;2.53;;
10645;SDS011;5371;49.782;9.932;2023-11-22T03:14:54;3.63;;;2.53;;
10645;SDS011;5371;49.782;9.932;2023-11-22T03:17:26;4.03;;;2.63;;
10645;SDS011;5371;49.782;9.932;2023-11-22T03:19:53;3.83;;;2.70;;
10645;SDS011;5371;49.782;9.932;2023-11-22T03:22:21;4.03;;;2.80;;
10645;SDS011;5371;49.782;9.932;2023-11-22T03:24:49;4.03;;;2.63;;
10645;SDS011;5371;49.782;9.932;2023-11-22T03:27:16;4.80;;;2.80;;
10645;SDS011;5371;49.782;9.932;2023-11-22T03:29:46;3.67;;;2.60;;
10645;SDS011;5371;49.782;9.932;2023-11-22T03:32:14;4.60;;;2.77;;
10645;SDS011;5371;49.782;9.932;2023-11-22T03:34:41;2.93;;;2.23;;
10645;SDS011;5371;49.782;9.932;2023-11-22T03:37:08;3.73;;;2.63;;
10645;SDS011;5371;49.782;9.932;2023-11-22T03:39:35;7.37;;;2.60;;
10645;SDS011;5371;49.782;9.932;2023-11-22T03:42:02;5.63;;;2.93;;
10645;SDS011;5371;49.782;9.932;2023-11-22T03:44:29;4.67;;;2.87;;
10645;SDS011;5371;49.782;9.932;2023-11-22T03:46:57;3.90;;;2.73;;
10645;SDS011;5371;49.782;9.932;2023-11-22T03:49:25;4.07;;;2.87;;
10645;SDS011;5371;49.782;9.932;2023-11-22T03:51:52;6.40;;;3.40;;
10645;SDS011;5371;49.782;9.932;2023-11-22T03:54:19;4.33;;;3.00;;
10645;SDS011;5371;49.782;9.932;2023-11-22T03:56:46;6.10;;;3.00;;
10645;SDS011;5371;49.782;9.932;2023-11-22T03:59:13;4.97;;;3.23;;
10645;SDS011;5371;49.782;9.932;2023-11-22T04:01:40;6.57;;;3.73;;
10645;SDS011;5371;49.782;9.932;2023-11-22T04:04:07;5.33;;;3.13;;
10645;SDS011;5371;49.782;9.932;2023-11-22T04:06:36;4.53;;;3.37;;
10645;SDS011;5371;49.782;9.932;2023-11-22T04:09:03;5.03;;;3.07;;
10645;SDS011;5371;49.782;9.932;2023-11-22T04:11:31;5.40;;;3.27;;
10645;SDS011;5371;49.782;9.932;2023-11-22T04:13:57;5.73;;;3.60;;
10645;SDS011;5371;49.782;9.932;2023-11-22T04:16:25;4.87;;;3.47;;
10645;SDS011;5371;49.782;9.932;2023-11-22T04:18:52;4.63;;;3.23;;
10645;SDS011;5371;49.782;9.932;2023-11-22T04:21:18;5.37;;;3.67;;
10645;SDS011;5371;49.782;9.932;2023-11-22T04:23:47;4.17;;;3.20;;
10645;SDS011;5371;49.782;9.932;2023-11-22T04:26:14;7.50;;;3.60;;
10645;SDS011;5371;49.782;9.932;2023-11-22T04:28:41;7.23;;;3.70;;
10645;SDS011;5371;49.782;9.932;2023-11-22T04:31:08;5.73;;;3.53;;
10645;SDS011;5371;49.782;9.932;2023-11-22T04:33:35;4.53;;;3.23;;
10645;SDS011;5371;49.782;9.932;2023-11-22T04:36:03;6.57;;;3.87;;
10645;SDS011;5371;49.782;9.932;2023-11-22T04:38:30;5.90;;;3.40;;
10645;SDS011;5371;49.782;9.932;2023-11-22T04:41:00;5.00;;;3.57;;
10645;SDS011;5371;49.782;9.932;2023-11-22T04:43:27;5.57;;;3.63;;
10645;SDS011;5371;49.782;9.932;2023-11-22T04:45:54;5.43;;;3.77;;
10645;SDS011;5371;49.782;9.932;2023-11-22T04:48:21;5.50;;;3.47;;
10645;SDS011;5371;49.782;9.932;2023-11-22T04:50:48;5.30;;;3.47;;
10645;SDS011;5371;49.782;9.932;2023-11-22T04:53:15;5.80;;;3.57;;
10645;SDS011;5371;49.782;9.932;2023-11-22T04:55:42;8.13;;;3.70;;
10645;SDS011;5371;49.782;9.932;2023-11-22T04:58:11;5.40;;;3.40;;
10645;SDS011;5371;49.782;9.932;2023-11-22T05:00:38;5.03;;;3.73;;
10645;SDS011;5371;49.782;9.932;2023-11-22T05:03:04;6.55;;;3.90;;
10645;SDS011;5371;49.782;9.932;2023-11-22T05:05:33;6.07;;;3.80;;
10645;SDS011;5371;49.782;9.932;2023-11-22T05:08:00;5.87;;;3.63;;
10645;SDS011;5371;49.782;9.932;2023-11-22T05:10:28;5.57;;;3.50;;
10645;SDS011;5371;49.782;9.932;2023-11-22T05:12:55;5.63;;;3.67;;
10645;SDS011;5371;49.782;9.932;2023-11-22T05:15:26;5.57;;;3.53;;
10645;SDS011;5371;49.782;9.932;2023-11-22T05:17:53;6.20;;;3.70;;
10645;SDS011;5371;49.782;9.932;2023-11-22T05:20:20;5.60;;;3.47;;
10645;SDS011;5371;49.782;9.932;2023-11-22T05:22:47;5.93;;;3.47;;
10645;SDS011;5371;49.782;9.932;2023-11-22T05:25:17;4.93;;;3.57;;
10645;SDS011;5371;49.782;9.932;2023-11-22T05:27:44;9.17;;;4.30;;
10645;SDS011;5371;49.782;9.932;2023-11-22T05:30:12;4.57;;;3.13;;
10645;SDS011;5371;49.782;9.932;2023-11-22T05:32:42;8.27;;;4.70;;
10645;SDS011;5371;49.782;9.932;2023-11-22T05:35:09;5.30;;;3.80;;
10645;SDS011;5371;49.782;9.932;2023-11-22T05:37:36;7.77;;;4.13;;
10645;SDS011;5371;49.782;9.932;2023-11-22T05:40:03;5.60;;;3.60;;
10645;SDS011;5371;49.782;9.932;2023-11-22T05:42:34;4.47;;;3.27;;
10645;SDS011;5371;49.782;9.932;2023-11-22T05:45:01;4.63;;;3.53;;
10645;SDS011;5371;49.782;9.932;2023-11-22T05:47:30;6.00;;;3.80;;
10645;SDS011;5371;49.782;9.932;2023-11-22T05:49:58;5.47;;;3.73;;
10645;SDS011;5371;49.782;9.932;2023-11-22T05:52:25;5.80;;;4.00;;
10645;SDS011;5371;49.782;9.932;2023-11-22T05:54:52;5.30;;;3.80;;
10645;SDS011;5371;49.782;9.932;2023-11-22T05:57:18;5.80;;;3.70;;
10645;SDS011;5371;49.782;9.932;2023-11-22T05:59:46;6.30;;;3.43;;
10645;SDS011;5371;49.782;9.932;2023-11-22T06:02:13;10.50;;;4.00;;
10645;SDS011;5371;49.782;9.932;2023-11-22T06:04:40;6.80;;;4.27;;
10645;SDS011;5371;49.782;9.932;2023-11-22T06:07:08;11.53;;;4.50;;
10645;SDS011;5371;49.782;9.932;2023-11-22T06:09:35;5.50;;;4.20;;
10645;SDS011;5371;49.782;9.932;2023-11-22T06:12:03;7.03;;;4.17;;
10645;SDS011;5371;49.782;9.932;2023-11-22T06:14:30;6.03;;;3.87;;
10645;SDS011;5371;49.782;9.932;2023-11-22T06:16:57;7.10;;;3.90;;
10645;SDS011;5371;49.782;9.932;2023-11-22T06:19:24;5.13;;;3.70;;
10645;SDS011;5371;49.782;9.932;2023-11-22T06:21:51;7.20;;;4.20;;
10645;SDS011;5371;49.782;9.932;2023-11-22T06:24:20;5.47;;;3.80;;
10645;SDS011;5371;49.782;9.932;2023-11-22T06:26:47;6.17;;;3.93;;
10645;SDS011;5371;49.782;9.932;2023-11-22T06:29:15;5.40;;;3.87;;
10645;SDS011;5371;49.782;9.932;2023-11-22T06:31:42;6.47;;;3.93;;
10645;SDS011;5371;49.782;9.932;2023-11-22T06:34:09;7.27;;;4.20;;
10645;SDS011;5371;49.782;9.932;2023-11-22T06:36:36;6.83;;;3.20;;
10645;SDS011;5371;49.782;9.932;2023-11-22T06:39:03;8.37;;;3.97;;
10645;SDS011;5371;49.782;9.932;2023-11-22T06:41:32;5.67;;;3.93;;
10645;SDS011;5371;49.782;9.932;2023-11-22T06:43:59;5.80;;;4.00;;
10645;SDS011;5371;49.782;9.932;2023-11-22T06:46:28;5.30;;;3.87;;
10645;SDS011;5371;49.782;9.932;2023-11-22T06:48:55;6.13;;;3.97;;
10645;SDS011;5371;49.782;9.932;2023-11-22T06:51:22;7.47;;;4.10;;
10645;SDS011;5371;49.782;9.932;2023-11-22T06:53:49;6.87;;;4.27;;
10645;SDS011;5371;49.782;9.932;2023-11-22T06:56:17;5.47;;;4.10;;
10645;SDS011;5371;49.782;9.932;2023-11-22T06:58:46;6.03;;;4.07;;
10645;SDS011;5371;49.782;9.932;2023-11-22T07:01:12;5.70;;;4.07;;
10645;SDS011;5371;49.782;9.932;2023-11-22T07:03:40;5.97;;;4.23;;
10645;SDS011;5371;49.782;9.932;2023-11-22T07:06:08;7.93;;;4.53;;
10645;SDS011;5371;49.782;9.932;2023-11-22T07:08:35;7.63;;;4.77;;
10645;SDS011;5371;49.782;9.932;2023-11-22T07:11:02;7.60;;;4.57;;
10645;SDS011;5371;49.782;9.932;2023-11-22T07:13:31;6.63;;;4.13;;
10645;SDS011;5371;49.782;9.932;2023-11-22T07:16:00;6.73;;;4.50;;
10645;SDS011;5371;49.782;9.932;2023-11-22T07:18:27;6.37;;;4.33;;
10645;SDS011;5371;49.782;9.932;2023-11-22T07:20:54;9.70;;;4.60;;
10645;SDS011;5371;49.782;9.932;2023-11-22T07:23:21;9.03;;;4.77;;
10645;SDS011;5371;49.782;9.932;2023-11-22T07:25:52;7.27;;;4.17;;
10645;SDS011;5371;49.782;9.932;2023-11-22T07:28:19;7.03;;;4.43;;
10645;SDS011;5371;49.782;9.932;2023-11-22T07:30:47;7.00;;;4.37;;
10645;SDS011;5371;49.782;9.932;2023-11-22T07:33:16;7.93;;;4.63;;
10645;SDS011;5371;49.782;9.932;2023-11-22T07:35:45;7.47;;;4.57;;
10645;SDS011;5371;49.782;9.932;2023-11-22T07:38:12;8.30;;;4.70;;
10645;SDS011;5371;49.782;9.932;2023-11-22T07:40:40;6.27;;;4.53;;
10645;SDS011;5371;49.782;9.932;2023-11-22T07:43:07;7.20;;;4.60;;
10645;SDS011;5371;49.782;9.932;2023-11-22T07:45:34;6.80;;;4.50;;
10645;SDS011;5371;49.782;9.932;2023-11-22T07:48:03;5.80;;;4.13;;
10645;SDS011;5371;49.782;9.932;2023-11-22T07:50:31;6.83;;;4.97;;
10645;SDS011;5371;49.782;9.932;2023-11-22T07:52:58;6.90;;;4.23;;
10645;SDS011;5371;49.782;9.932;2023-11-22T07:55:28;7.43;;;4.73;;
10645;SDS011;5371;49.782;9.932;2023-11-22T07:57:55;7.97;;;4.80;;
10645;SDS011;5371;49.782;9.932;2023-11-22T08:00:22;7.67;;;4.60;;
10645;SDS011;5371;49.782;9.932;2023-11-22T08:02:49;7.80;;;4.20;;
10645;SDS011;5371;49.782;9.932;2023-11-22T08:05:19;9.93;;;4.60;;
10645;SDS011;5371;49.782;9.932;2023-11-22T08:07:50;7.50;;;4.90;;
10645;SDS011;5371;49.782;9.932;2023-11-22T08:10:17;6.93;;;4.40;;
10645;SDS011;5371;49.782;9.932;2023-11-22T08:12:45;7.20;;;4.13;;
10645;SDS011;5371;49.782;9.932;2023-11-22T08:15:13;7.70;;;4.23;;
10645;SDS011;5371;49.782;9.932;2023-11-22T08:17:41;7.77;;;4.10;;
10645;SDS011;5371;49.782;9.932;2023-11-22T08:20:08;8.03;;;4.50;;
10645;SDS011;5371;49.782;9.932;2023-11-22T08:22:39;7.40;;;4.47;;
10645;SDS011;5371;49.782;9.932;2023-11-22T08:25:08;8.63;;;5.10;;
10645;SDS011;5371;49.782;9.932;2023-11-22T08:27:38;8.10;;;5.13;;
10645;SDS011;5371;49.782;9.932;2023-11-22T08:30:07;8.87;;;5.40;;
10645;SDS011;5371;49.782;9.932;2023-11-22T08:32:39;8.17;;;5.17;;
10645;SDS011;5371;49.782;9.932;2023-11-22T08:35:08;9.60;;;4.73;;
10645;SDS011;5371;49.782;9.932;2023-11-22T08:37:35;9.70;;;4.57;;
10645;SDS011;5371;49.782;9.932;2023-11-22T08:40:04;9.93;;;5.33;;
10645;SDS011;5371;49.782;9.932;2023-11-22T08:42:34;12.50;;;5.43;;
10645;SDS011;5371;49.782;9.932;2023-11-22T08:45:02;12.37;;;5.00;;
10645;SDS011;5371;49.782;9.932;2023-11-22T08:47:29;7.40;;;5.00;;
10645;SDS011;5371;49.782;9.932;2023-11-22T08:49:56;10.17;;;5.47;;
10645;SDS011;5371;49.782;9.932;2023-11-22T08:52:24;9.50;;;4.90;;
10645;SDS011;5371;49.782;9.932;2023-11-22T08:54:51;9.90;;;5.23;;
10645;SDS011;5371;49.782;9.932;2023-11-22T08:57:19;7.20;;;4.83;;
10645;SDS011;5371;49.782;9.932;2023-11-22T08:59:47;6.50;;;4.70;;
10645;SDS011;5371;49.782;9.932;2023-11-22T09:02:14;8.47;;;5.10;;
10645;SDS011;5371;49.782;9.932;2023-11-22T09:04:43;7.57;;;4.87;;
10645;SDS011;5371;49.782;9.932;2023-11-22T09:07:10;6.67;;;4.73;;
10645;SDS011;5371;49.782;9.932;2023-11-22T09:09:40;7.97;;;5.17;;
10645;SDS011;5371;49.782;9.932;2023-11-22T09:12:08;7.07;;;4.50;;
10645;SDS011;5371;49.782;9.932;2023-11-22T09:14:38;7.07;;;4.63;;
10645;SDS011;5371;49.782;9.932;2023-11-22T09:17:08;7.27;;;5.03;;
10645;SDS011;5371;49.782;9.932;2023-11-22T09:19:35;8.50;;;4.90;;
10645;SDS011;5371;49.782;9.932;2023-11-22T09:22:03;7.57;;;4.80;;
10645;SDS011;5371;49.782;9.932;2023-11-22T09:24:32;8.93;;;4.77;;
10645;SDS011;5371;49.782;9.932;2023-11-22T09:27:02;7.70;;;4.80;;
10645;SDS011;5371;49.782;9.932;2023-11-22T09:29:30;8.77;;;5.10;;
10645;SDS011;5371;49.782;9.932;2023-11-22T09:31:59;9.30;;;5.23;;
10645;SDS011;5371;49.782;9.932;2023-11-22T09:34:28;16.03;;;6.07;;
10645;SDS011;5371;49.782;9.932;2023-11-22T09:36:56;7.83;;;4.70;;
10645;SDS011;5371;49.782;9.932;2023-11-22T09:39:24;11.30;;;5.10;;
10645;SDS011;5371;49.782;9.932;2023-11-22T09:41:51;8.90;;;5.00;;
10645;SDS011;5371;49.782;9.932;2023-11-22T09:44:19;6.80;;;5.00;;
10645;SDS011;5371;49.782;9.932;2023-11-22T09:46:48;8.57;;;4.77;;
10645;SDS011;5371;49.782;9.932;2023-11-22T09:49:19;9.20;;;5.53;;
10645;SDS011;5371;49.782;9.932;2023-11-22T09:51:49;10.90;;;5.27;;
10645;SDS011;5371;49.782;9.932;2023-11-22T09:54:18;9.03;;;5.47;;
10645;SDS011;5371;49.782;9.932;2023-11-22T09:56:48;11.87;;;5.13;;
10645;SDS011;5371;49.782;9.932;2023-11-22T09:59:17;7.30;;;4.90;;
10645;SDS011;5371;49.782;9.932;2023-11-22T10:01:47;8.47;;;4.97;;
10645;SDS011;5371;49.782;9.932;2023-11-22T10:04:15;8.07;;;5.20;;
10645;SDS011;5371;49.782;9.932;2023-11-22T10:06:42;8.90;;;5.27;;
10645;SDS011;5371;49.782;9.932;2023-11-22T10:09:13;7.73;;;4.77;;
10645;SDS011;5371;49.782;9.932;2023-11-22T10:11:40;8.43;;;5.07;;
10645;SDS011;5371;49.782;9.932;2023-11-22T10:14:09;10.13;;;5.50;;
10645;SDS011;5371;49.782;9.932;2023-11-22T10:16:36;8.17;;;4.97;;
10645;SDS011;5371;49.782;9.932;2023-11-22T10:19:03;7.73;;;5.40;;
10645;SDS011;5371;49.782;9.932;2023-11-22T10:21:32;9.47;;;5.23;;
10645;SDS011;5371;49.782;9.932;2023-11-22T10:44:31;7.97;;;4.90;;
10645;SDS011;5371;49.782;9.932;2023-11-22T10:50:35;7.87;;;5.10;;
10645;SDS011;5371;49.782;9.932;2023-11-22T10:53:03;9.63;;;5.47;;
10645;SDS011;5371;49.782;9.932;2023-11-22T10:55:35;9.70;;;5.10;;
10645;SDS011;5371;49.782;9.932;2023-11-22T10:58:03;7.23;;;4.50;;
10645;SDS011;5371;49.782;9.932;2023-11-22T11:00:33;8.90;;;4.60;;
10645;SDS011;5371;49.782;9.932;2023-11-22T11:03:01;8.87;;;5.33;;
10645;SDS011;5371;49.782;9.932;2023-11-22T11:05:33;11.40;;;5.57;;
10645;SDS011;5371;49.782;9.932;2023-11-22T11:08:02;6.63;;;4.67;;
10645;SDS011;5371;49.782;9.932;2023-11-22T11:10:38;7.10;;;4.53;;
10645;SDS011;5371;49.782;9.932;2023-11-22T11:13:05;7.73;;;4.60;;
10645;SDS011;5371;49.782;9.932;2023-11-22T11:15:34;6.23;;;3.97;;
10645;SDS011;5371;49.782;9.932;2023-11-22T11:18:01;6.00;;;4.20;;
10645;SDS011;5371;49.782;9.932;2023-11-22T11:20:32;6.70;;;4.40;;
10645;SDS011;5371;49.782;9.932;2023-11-22T11:23:01;8.27;;;4.80;;
10645;SDS011;5371;49.782;9.932;2023-11-22T11:25:31;8.47;;;4.33;;
10645;SDS011;5371;49.782;9.932;2023-11-22T11:27:59;6.73;;;4.50;;
10645;SDS011;5371;49.782;9.932;2023-11-22T11:30:46;6.67;;;4.60;;
10645;SDS011;5371;49.782;9.932;2023-11-22T11:33:14;5.80;;;4.30;;
10645;SDS011;5371;49.782;9.932;2023-11-22T11:35:43;7.60;;;5.00;;
10645;SDS011;5371;49.782;9.932;2023-11-22T11:38:12;6.43;;;4.73;;
10645;SDS011;5371;49.782;9.932;2023-11-22T11:40:40;7.37;;;5.13;;
10645;SDS011;5371;49.782;9.932;2023-11-22T11:43:07;6.37;;;4.30;;
10645;SDS011;5371;49.782;9.932;2023-11-22T11:45:36;8.30;;;5.20;;
10645;SDS011;5371;49.782;9.932;2023-11-22T11:48:06;6.23;;;4.33;;
10645;SDS011;5371;49.782;9.932;2023-11-22T11:50:33;7.10;;;4.70;;
10645;SDS011;5371;49.782;9.932;2023-11-22T11:53:00;7.53;;;5.17;;
10645;SDS011;5371;49.782;9.932;2023-11-22T11:55:28;7.43;;;4.87;;
10645;SDS011;5371;49.782;9.932;2023-11-22T11:57:55;7.23;;;5.23;;
10645;SDS011;5371;49.782;9.932;2023-11-22T12:00:22;6.90;;;4.70;;
10645;SDS011;5371;49.782;9.932;2023-11-22T12:02:50;6.93;;;4.70;;
10645;SDS011;5371;49.782;9.932;2023-11-22T12:05:21;13.03;;;5.23;;
10645;SDS011;5371;49.782;9.932;2023-11-22T12:07:50;6.70;;;4.80;;
10645;SDS011;5371;49.782;9.932;2023-11-22T12:10:17;6.87;;;5.03;;
10645;SDS011;5371;49.782;9.932;2023-11-22T12:12:45;7.07;;;5.07;;
10645;SDS011;5371;49.782;9.932;2023-11-22T12:15:12;7.17;;;4.90;;
10645;SDS011;5371;49.782;9.932;2023-11-22T12:17:40;7.80;;;4.83;;
10645;SDS011;5371;49.782;9.932;2023-11-22T12:20:11;9.40;;;5.63;;
10645;SDS011;5371;49.782;9.932;2023-11-22T12:22:40;6.93;;;4.47;;
10645;SDS011;5371;49.782;9.932;2023-11-22T12:25:08;6.77;;;4.77;;
10645;SDS011;5371;49.782;9.932;2023-11-22T12:27:39;6.37;;;4.80;;
10645;SDS011;5371;49.782;9.932;2023-11-22T12:30:08;6.33;;;4.37;;
10645;SDS011;5371;49.782;9.932;2023-11-22T12:32:39;6.17;;;4.80;;
10645;SDS011;5371;49.782;9.932;2023-11-22T12:35:08;6.80;;;4.93;;
10645;SDS011;5371;49.782;9.932;2023-11-22T12:37:37;7.73;;;5.00;;
10645;SDS011;5371;49.782;9.932;2023-11-22T12:40:14;8.30;;;4.60;;
10645;SDS011;5371;49.782;9.932;2023-11-22T12:42:49;8.37;;;4.93;;
10645;SDS011;5371;49.782;9.932;2023-11-22T12:45:18;8.37;;;5.00;;
10645;SDS011;5371;49.782;9.932;2023-11-22T12:47:49;9.07;;;5.60;;
10645;SDS011;5371;49.782;9.932;2023-11-22T12:50:32;6.33;;;4.60;;
10645;SDS011;5371;49.782;9.932;2023-11-22T12:53:07;7.40;;;5.00;;
10645;SDS011;5371;49.782;9.932;2023-11-22T12:55:37;8.20;;;5.03;;
10645;SDS011;5371;49.782;9.932;2023-11-22T12:58:06;12.60;;;5.93;;
10645;SDS011;5371;49.782;9.932;2023-11-22T13:00:33;8.17;;;4.90;;
10645;SDS011;5371;49.782;9.932;2023-11-22T13:03:01;8.53;;;5.33;;
10645;SDS011;5371;49.782;9.932;2023-11-22T13:05:28;11.77;;;5.73;;
10645;SDS011;5371;49.782;9.932;2023-11-22T13:07:55;10.90;;;5.43;;
10645;SDS011;5371;49.782;9.932;2023-11-22T13:10:23;8.57;;;5.47;;
10645;SDS011;5371;49.782;9.932;2023-11-22T13:12:53;7.50;;;4.93;;
10645;SDS011;5371;49.782;9.932;2023-11-22T13:15:20;6.40;;;4.70;;
10645;SDS011;5371;49.782;9.932;2023-11-22T13:17:49;7.67;;;5.10;;
10645;SDS011;5371;49.782;9.932;2023-11-22T13:20:21;8.27;;;5.20;;
10645;SDS011;5371;49.782;9.932;2023-11-22T13:22:52;6.93;;;4.70;;
10645;SDS011;5371;49.782;9.932;2023-11-22T13:25:19;6.60;;;5.07;;
10645;SDS011;5371;49.782;9.932;2023-11-22T13:27:46;6.33;;;4.83;;
10645;SDS011;5371;49.782;9.932;2023-11-22T13:30:16;7.53;;;5.03;;
10645;SDS011;5371;49.782;9.932;2023-11-22T13:32:45;7.30;;;5.23;;
10645;SDS011;5371;49.782;9.932;2023-11-22T13:35:13;7.30;;;4.60;;
10645;SDS011;5371;49.782;9.932;2023-11-22T13:37:43;7.43;;;4.80;;
10645;SDS011;5371;49.782;9.932;2023-11-22T13:40:11;7.93;;;5.30;;
10645;SDS011;5371;49.782;9.932;2023-11-22T13:42:40;7.53;;;4.90;;
10645;SDS011;5371;49.782;9.932;2023-11-22T13:45:09;7.83;;;5.00;;
10645;SDS011;5371;49.782;9.932;2023-11-22T13:47:43;6.30;;;4.57;;
10645;SDS011;5371;49.782;9.932;2023-11-22T13:50:12;8.23;;;5.10;;
10645;SDS011;5371;49.782;9.932;2023-11-22T13:52:41;12.27;;;6.10;;
10645;SDS011;5371;49.782;9.932;2023-11-22T13:55:08;7.87;;;5.10;;
10645;SDS011;5371;49.782;9.932;2023-11-22T13:57:38;7.57;;;5.20;;
10645;SDS011;5371;49.782;9.932;2023-11-22T14:00:06;10.03;;;5.63;;
10645;SDS011;5371;49.782;9.932;2023-11-22T14:02:37;9.23;;;5.77;;
10645;SDS011;5371;49.782;9.932;2023-11-22T14:05:07;10.97;;;5.67;;
10645;SDS011;5371;49.782;9.932;2023-11-22T14:07:37;8.27;;;5.47;;
10645;SDS011;5371;49.782;9.932;2023-11-22T14:10:05;8.87;;;5.23;;
10645;SDS011;5371;49.782;9.932;2023-11-22T14:12:33;8.10;;;4.80;;
10645;SDS011;5371;49.782;9.932;2023-11-22T14:15:01;7.47;;;5.27;;
10645;SDS011;5371;49.782;9.932;2023-11-22T14:17:30;8.00;;;5.37;;
10645;SDS011;5371;49.782;9.932;2023-11-22T14:19:57;7.63;;;5.20;;
10645;SDS011;5371;49.782;9.932;2023-11-22T14:22:26;6.53;;;4.87;;
10645;SDS011;5371;49.782;9.932;2023-11-22T14:24:53;6.50;;;5.00;;
10645;SDS011;5371;49.782;9.932;2023-11-22T14:27:20;7.87;;;4.93;;
10645;SDS011;5371;49.782;9.932;2023-11-22T14:29:47;7.30;;;4.37;;
10645;SDS011;5371;49.782;9.932;2023-11-22T14:32:15;7.53;;;4.83;;
10645;SDS011;5371;49.782;9.932;2023-11-22T14:34:42;6.20;;;5.00;;
10645;SDS011;5371;49.782;9.932;2023-11-22T14:37:10;9.47;;;5.33;;
10645;SDS011;5371;49.782;9.932;2023-11-22T14:39:38;9.00;;;5.10;;
10645;SDS011;5371;49.782;9.932;2023-11-22T14:42:05;7.53;;;4.90;;
10645;SDS011;5371;49.782;9.932;2023-11-22T14:44:33;10.70;;;5.47;;
10645;SDS011;5371;49.782;9.932;2023-11-22T14:47:01;9.97;;;5.10;;
10645;SDS011;5371;49.782;9.932;2023-11-22T14:49:31;6.37;;;4.80;;
10645;SDS011;5371;49.782;9.932;2023-11-22T14:52:01;8.53;;;5.53;;
10645;SDS011;5371;49.782;9.932;2023-11-22T14:54:29;8.40;;;5.57;;
10645;SDS011;5371;49.782;9.932;2023-11-22T14:56:58;7.10;;;5.47;;
10645;SDS011;5371;49.782;9.932;2023-11-22T14:59:27;12.93;;;7.57;;
10645;SDS011;5371;49.782;9.932;2023-11-22T15:01:55;7.87;;;5.10;;
10645;SDS011;5371;49.782;9.932;2023-11-22T15:04:22;6.30;;;4.80;;
10645;SDS011;5371;49.782;9.932;2023-11-22T15:06:49;8.37;;;5.37;;
10645;SDS011;5371;49.782;9.932;2023-11-22T15:09:17;7.80;;;4.83;;
10645;SDS011;5371;49.782;9.932;2023-11-22T15:11:44;6.83;;;4.50;;
10645;SDS011;5371;49.782;9.932;2023-11-22T15:14:14;8.23;;;4.93;;
10645;SDS011;5371;49.782;9.932;2023-11-22T15:16:42;7.67;;;5.47;;
10645;SDS011;5371;49.782;9.932;2023-11-22T15:19:09;6.33;;;4.53;;
10645;SDS011;5371;49.782;9.932;2023-11-22T15:21:36;6.37;;;4.97;;
10645;SDS011;5371;49.782;9.932;2023-11-22T15:24:03;5.93;;;4.40;;
10645;SDS011;5371;49.782;9.932;2023-11-22T15:26:31;8.10;;;4.17;;
10645;SDS011;5371;49.782;9.932;2023-11-22T15:28:58;7.70;;;4.77;;